Alba, TX (75410)

6:33 PM CDT on August 30, 2015 (GMT -0500)
Ray Branch - Lake Fork | | Change Station
CLOSE
Current Station
Personal Weather Station
Location: Alba, TX
Elevation: 420 ft
Nearby Weather Stations

Elev 420 ft 32.81 °N, 95.58 °W | Updated 14 minutes ago

Partly Cloudy
Partly Cloudy
89.5 °F
Feels Like 93 °F
N
1.0
Wind Variable Wind from South
Gusts 5.0 mph

Today
High -- | Low -- °F
--% Chance of Precip.
Yesterday
High -- | Low -- °F
Precip. -- in
6:55 AM 7:50 PM
Full, 98% visible
Pressure 29.96 in
Visibility 10.0 miles
Clouds Clear
Heat Index 93 °F
Dew Point 67 °F
Humidity 48%
Rainfall 0.00 in
Snow Depth Not available.
UV 0.6 out of 12
Pollen 8.70 out of 12
Air Quality Not available.
Flu Activity Not available.
METAR KJDD 302315Z AUTO 17005KT 10SM CLR 33/17 A2996 RMK AO2
Pressure 29.96 in
Visibility 10.0 miles
Clouds Clear
Heat Index 93 °F
Dew Point 67 °F
Humidity 48%
Rainfall 0.00 in
Snow Depth Not available.
UV 0.6 out of 12
Pollen 8.70 out of 12
Air Quality Not available.
Flu Activity Not available.
METAR KJDD 302315Z AUTO 17005KT 10SM CLR 33/17 A2996 RMK AO2
Nowcast | as of 5:45 PM CDT on August 30, 2015

Through 730 PM CDT...look for isolated showers and thunderstorms to continued developing and moving to the northeast around 10 mph. Communities near Mount Pleasant Texas...Winthrop and Wilton Arkansas...and Garvin...Pickens...Battiest...and Smithville Oklahoma. Brief gusty winds and occasional lightning associated with the thunderstorms...along with rainfall amounts near one tenth of an inch. Most locations will only see light rainfall.

×

10-Day Weather Forecast

×

Almanac

Astronomy

Aug. 30, 2015 Rise Set
Actual Time
Civil Twilight
Nautical Twilight
Astronomical Twilight
Moon
Length of Visible Light
Length of Day
Tomorrow will be .
, % of the Moon is Illuminated

Today's Extremes

State Highs State Lows

Community

WunderPhotos

Upload Photos

1,851,090 photos uploaded!

WunderBlogs® & News

Nearby

Air Quality

  Air Quality AQ Index Pollutant
Not available.

Snow Depth

Station Depth Elevation

Earthquake Activity

City Distance Mag. Time & Date
Minimum magnitude displayed is 2.5.

Coastal Water Temperatures

Place Temperature

Stations

Nearby Weather Stations

Station Location Temp. Windchill Dew Point Humidity Wind Precip. Elev Updated Type